Time;durP1;ratioP1;P1;durP2;ratioP2;P2;SDS_P1;SDS_P2;PMS_P1;PMS_P2;Temp;Humidity;BMP_temperature;BMP_pressure;BME280_temperature;BME280_humidity;BME280_pressure;Samples;Min_cycle;Max_cycle;Signal;HPM_P1;HPM_P2
2020/12/17 00:01:56;;;;;;;28.87;20.33;;;;;;;;;;5042926;28;20241;-68
2020/12/17 00:04:21;;;;;;;28.23;19.17;;;;;;;;;;5040775;28;20255;-66
2020/12/17 00:06:47;;;;;;;29.20;19.53;;;;;;;;;;5048733;28;20212;-67
2020/12/17 00:09:12;;;;;;;28.33;19.27;;;;;;;;;;5044820;28;20239;-67
2020/12/17 00:11:37;;;;;;;29.00;18.83;;;;;;;;;;5043357;28;20185;-67
2020/12/17 00:14:02;;;;;;;27.47;19.60;;;;;;;;;;5040217;28;21036;-67
2020/12/17 00:16:28;;;;;;;28.07;18.70;;;;;;;;;;5039983;28;20213;-67
2020/12/17 00:18:56;;;;;;;28.37;18.30;;;;;;;;;;5038249;28;20848;-66
2020/12/17 00:21:22;;;;;;;24.77;18.57;;;;;;;;;;5039791;28;20194;-67
2020/12/17 00:23:47;;;;;;;26.57;17.53;;;;;;;;;;5039656;28;20200;-67
2020/12/17 00:26:13;;;;;;;24.20;16.23;;;;;;;;;;5039529;28;20204;-66
2020/12/17 00:28:39;;;;;;;23.97;15.57;;;;;;;;;;5040539;28;20204;-67
2020/12/17 00:31:04;;;;;;;25.10;16.47;;;;;;;;;;5040909;28;20182;-67
2020/12/17 00:33:29;;;;;;;24.93;16.67;;;;;;;;;;5040505;28;20183;-67
2020/12/17 00:35:55;;;;;;;25.00;16.87;;;;;;;;;;5040737;28;20267;-67
2020/12/17 00:38:20;;;;;;;25.43;18.50;;;;;;;;;;5041034;28;20219;-67
2020/12/17 00:40:46;;;;;;;22.07;16.90;;;;;;;;;;5041006;28;20595;-67
2020/12/17 00:43:11;;;;;;;24.20;17.33;;;;;;;;;;5040197;28;20614;-67
2020/12/17 00:45:36;;;;;;;26.17;17.03;;;;;;;;;;5040170;28;20316;-67
2020/12/17 00:48:02;;;;;;;21.60;15.17;;;;;;;;;;5040099;28;20207;-67
2020/12/17 00:50:27;;;;;;;24.50;16.37;;;;;;;;;;5040176;28;20178;-67
2020/12/17 00:52:52;;;;;;;25.50;15.03;;;;;;;;;;5040302;28;20231;-67
2020/12/17 00:55:17;;;;;;;24.63;16.17;;;;;;;;;;5037573;28;20782;-66
2020/12/17 00:57:43;;;;;;;21.17;15.10;;;;;;;;;;5039987;28;20276;-66
2020/12/17 01:00:08;;;;;;;21.87;16.07;;;;;;;;;;5039625;28;20274;-67
2020/12/17 01:02:34;;;;;;;25.20;16.53;;;;;;;;;;5039380;28;20188;-66
2020/12/17 01:04:59;;;;;;;24.90;16.10;;;;;;;;;;5039107;28;20202;-67
2020/12/17 01:07:25;;;;;;;25.17;17.67;;;;;;;;;;5039661;28;20723;-67
2020/12/17 01:09:50;;;;;;;24.03;14.97;;;;;;;;;;5037909;28;20203;-67
2020/12/17 01:12:15;;;;;;;23.70;16.13;;;;;;;;;;5039378;28;20242;-66
2020/12/17 01:14:41;;;;;;;22.80;15.97;;;;;;;;;;5039460;28;20237;-67
2020/12/17 01:17:06;;;;;;;20.47;15.40;;;;;;;;;;5038864;28;20193;-67
2020/12/17 01:19:32;;;;;;;24.67;15.93;;;;;;;;;;5039172;28;20215;-67
2020/12/17 01:21:58;;;;;;;23.10;16.07;;;;;;;;;;5039400;28;20756;-67
2020/12/17 01:24:24;;;;;;;23.60;16.10;;;;;;;;;;5038739;28;20745;-66
2020/12/17 01:26:51;;;;;;;20.23;14.83;;;;;;;;;;5054516;28;20184;-67
2020/12/17 01:29:16;;;;;;;21.40;15.20;;;;;;;;;;5039373;28;20220;-67
2020/12/17 01:31:42;;;;;;;21.73;14.97;;;;;;;;;;5038986;28;20193;-67
2020/12/17 01:34:07;;;;;;;20.70;15.43;;;;;;;;;;5039261;28;20925;-66
2020/12/17 01:36:32;;;;;;;22.47;16.00;;;;;;;;;;5038623;28;20281;-66
2020/12/17 01:38:58;;;;;;;22.30;15.77;;;;;;;;;;5039190;28;20244;-67
2020/12/17 01:41:23;;;;;;;21.87;15.90;;;;;;;;;;5037926;28;20187;-67
2020/12/17 01:43:48;;;;;;;21.53;14.57;;;;;;;;;;5038735;28;20209;-66
2020/12/17 01:46:14;;;;;;;20.73;14.87;;;;;;;;;;5038263;28;20237;-67
2020/12/17 01:48:40;;;;;;;20.50;14.70;;;;;;;;;;5053781;28;20216;-66
2020/12/17 01:51:06;;;;;;;22.87;14.87;;;;;;;;;;5038842;28;20196;-67
2020/12/17 01:53:41;;;;;;;22.67;16.13;;;;;;;;;;5038987;28;20658;-67
2020/12/17 01:56:09;;;;;;;20.73;14.00;;;;;;;;;;5037771;28;20263;-67
2020/12/17 01:58:39;;;;;;;20.83;14.77;;;;;;;;;;5037170;28;20257;-67
2020/12/17 02:01:05;;;;;;;20.97;14.23;;;;;;;;;;5038833;28;20664;-67
2020/12/17 02:03:30;;;;;;;22.97;14.53;;;;;;;;;;5038189;28;20213;-67
2020/12/17 02:05:56;;;;;;;22.10;15.63;;;;;;;;;;5038226;28;20209;-69
2020/12/17 02:08:22;;;;;;;21.73;14.50;;;;;;;;;;5039040;28;20231;-67
2020/12/17 02:10:48;;;;;;;21.83;15.87;;;;;;;;;;5038601;28;20182;-68
2020/12/17 02:13:13;;;;;;;22.10;16.00;;;;;;;;;;5038993;28;20183;-68
2020/12/17 02:15:38;;;;;;;24.17;15.97;;;;;;;;;;5038244;28;20567;-68
2020/12/17 02:18:04;;;;;;;20.97;15.30;;;;;;;;;;5037994;28;20208;-68
2020/12/17 02:20:29;;;;;;;23.33;16.10;;;;;;;;;;5038870;28;20550;-68
2020/12/17 02:22:54;;;;;;;22.77;15.60;;;;;;;;;;5038622;28;20294;-68
2020/12/17 02:25:20;;;;;;;23.70;15.97;;;;;;;;;;5037561;28;20177;-68
2020/12/17 02:27:46;;;;;;;22.23;15.40;;;;;;;;;;5036492;28;20623;-68
2020/12/17 02:30:11;;;;;;;20.90;14.40;;;;;;;;;;5038329;28;20600;-67
2020/12/17 02:32:37;;;;;;;23.63;16.07;;;;;;;;;;5037839;28;20758;-67
2020/12/17 02:35:03;;;;;;;22.33;16.07;;;;;;;;;;5038561;28;20187;-68
2020/12/17 02:37:28;;;;;;;22.50;15.27;;;;;;;;;;5038578;28;20274;-68
2020/12/17 02:39:54;;;;;;;22.53;16.37;;;;;;;;;;5038538;28;20212;-68
2020/12/17 02:42:19;;;;;;;22.50;16.10;;;;;;;;;;5038284;28;20740;-68
2020/12/17 02:44:44;;;;;;;20.67;15.17;;;;;;;;;;5038342;28;20230;-67
2020/12/17 02:47:10;;;;;;;19.97;14.80;;;;;;;;;;5036682;28;20263;-68
2020/12/17 02:49:35;;;;;;;23.80;16.17;;;;;;;;;;5037665;28;20256;-69
2020/12/17 02:52:01;;;;;;;23.17;15.77;;;;;;;;;;5038066;28;20222;-67
2020/12/17 02:54:26;;;;;;;20.53;15.10;;;;;;;;;;5037383;28;20268;-67
2020/12/17 02:56:51;;;;;;;21.43;15.20;;;;;;;;;;5035773;28;20193;-68
2020/12/17 02:59:16;;;;;;;24.17;16.43;;;;;;;;;;5037040;28;20195;-68
2020/12/17 03:01:42;;;;;;;21.33;15.60;;;;;;;;;;5031264;28;20270;-68
2020/12/17 03:04:07;;;;;;;20.70;15.50;;;;;;;;;;5037284;28;20217;-68
2020/12/17 03:06:32;;;;;;;23.23;16.23;;;;;;;;;;5038084;28;20179;-68
2020/12/17 03:08:58;;;;;;;20.73;15.60;;;;;;;;;;5038756;28;20224;-67
2020/12/17 03:11:23;;;;;;;22.20;16.23;;;;;;;;;;5041074;28;20182;-67
2020/12/17 03:13:48;;;;;;;21.93;15.63;;;;;;;;;;5039790;28;20187;-68
2020/12/17 03:16:13;;;;;;;22.47;14.60;;;;;;;;;;5039975;28;20197;-68
2020/12/17 03:18:39;;;;;;;24.83;16.57;;;;;;;;;;5040613;28;20209;-68
2020/12/17 03:21:04;;;;;;;22.07;16.23;;;;;;;;;;5040738;28;20656;-67
2020/12/17 03:23:29;;;;;;;25.30;16.63;;;;;;;;;;5040439;28;20207;-68
2020/12/17 03:25:55;;;;;;;21.20;16.60;;;;;;;;;;5040337;28;20179;-68
2020/12/17 03:28:20;;;;;;;23.20;16.63;;;;;;;;;;5041069;28;20216;-68
2020/12/17 03:30:45;;;;;;;22.83;16.10;;;;;;;;;;5042212;28;20249;-68
2020/12/17 03:33:11;;;;;;;22.53;15.53;;;;;;;;;;5041758;28;20180;-68
2020/12/17 03:35:36;;;;;;;23.93;16.47;;;;;;;;;;5040521;28;20596;-66
2020/12/17 03:38:01;;;;;;;21.03;15.23;;;;;;;;;;5040496;28;20217;-67
2020/12/17 03:40:27;;;;;;;25.77;15.83;;;;;;;;;;5035345;28;20319;-67
2020/12/17 03:42:53;;;;;;;22.63;15.47;;;;;;;;;;5042138;28;20218;-67
2020/12/17 03:45:19;;;;;;;19.40;14.07;;;;;;;;;;5041425;28;21079;-67
2020/12/17 03:47:44;;;;;;;22.13;15.37;;;;;;;;;;5045479;28;20639;-67
2020/12/17 03:50:09;;;;;;;21.83;16.43;;;;;;;;;;5047177;28;20182;-67
2020/12/17 03:52:34;;;;;;;22.83;15.33;;;;;;;;;;5045456;28;20189;-67
2020/12/17 03:55:00;;;;;;;23.30;16.63;;;;;;;;;;5041683;28;20199;-67
2020/12/17 03:57:25;;;;;;;22.90;16.03;;;;;;;;;;5040831;28;20875;-67
2020/12/17 03:59:50;;;;;;;22.53;15.40;;;;;;;;;;5039267;28;20219;-67
2020/12/17 04:02:16;;;;;;;22.03;15.73;;;;;;;;;;5039583;28;20649;-67
2020/12/17 04:04:41;;;;;;;22.70;15.73;;;;;;;;;;5040219;28;20218;-67
2020/12/17 04:07:06;;;;;;;24.07;16.30;;;;;;;;;;5039497;28;20203;-67
2020/12/17 04:09:31;;;;;;;23.43;16.00;;;;;;;;;;5040347;28;21070;-67
2020/12/17 04:11:57;;;;;;;27.73;18.40;;;;;;;;;;5073398;28;20965;-67
2020/12/17 04:14:22;;;;;;;24.57;17.60;;;;;;;;;;5039136;28;20250;-67
2020/12/17 04:16:47;;;;;;;25.10;15.53;;;;;;;;;;5040341;28;20984;-67
2020/12/17 04:19:13;;;;;;;22.13;16.10;;;;;;;;;;5040720;28;20287;-67
2020/12/17 04:21:38;;;;;;;25.93;17.00;;;;;;;;;;5041309;28;20531;-67
2020/12/17 04:24:03;;;;;;;20.63;15.90;;;;;;;;;;5041073;28;20205;-67
2020/12/17 04:26:29;;;;;;;24.10;17.03;;;;;;;;;;5041050;28;20186;-67
2020/12/17 04:28:54;;;;;;;22.13;16.67;;;;;;;;;;5041299;28;20364;-67
2020/12/17 04:31:19;;;;;;;23.83;17.40;;;;;;;;;;5040046;28;20183;-67
2020/12/17 04:33:45;;;;;;;23.63;17.90;;;;;;;;;;5040754;28;20669;-68
2020/12/17 04:36:10;;;;;;;23.87;16.27;;;;;;;;;;5040172;28;20973;-67
2020/12/17 04:38:35;;;;;;;23.60;16.70;;;;;;;;;;5039893;28;20207;-67
2020/12/17 04:41:04;;;;;;;23.50;16.43;;;;;;;;;;5040348;28;20222;-67
2020/12/17 04:43:30;;;;;;;24.87;17.33;;;;;;;;;;5038953;28;20218;-67
2020/12/17 04:45:56;;;;;;;24.93;17.43;;;;;;;;;;5039616;28;20246;-67
2020/12/17 04:48:23;;;;;;;25.83;18.43;;;;;;;;;;5040336;28;20273;-67
2020/12/17 04:50:49;;;;;;;25.40;17.20;;;;;;;;;;5040065;28;20268;-68
2020/12/17 04:53:15;;;;;;;23.70;16.63;;;;;;;;;;5039903;28;20665;-68
2020/12/17 04:55:41;;;;;;;26.30;18.17;;;;;;;;;;5040057;28;20723;-66
2020/12/17 04:58:07;;;;;;;26.63;18.63;;;;;;;;;;5039910;28;20206;-68
2020/12/17 05:00:36;;;;;;;24.27;16.33;;;;;;;;;;5039041;28;20211;-65
2020/12/17 05:03:03;;;;;;;26.87;17.47;;;;;;;;;;5038736;28;20233;-69
2020/12/17 05:05:28;;;;;;;25.10;17.70;;;;;;;;;;5039765;28;20451;-68
2020/12/17 05:07:53;;;;;;;25.00;16.60;;;;;;;;;;5039314;28;20200;-69
2020/12/17 05:10:19;;;;;;;23.07;15.60;;;;;;;;;;5039521;28;20183;-67
2020/12/17 05:12:44;;;;;;;23.47;14.47;;;;;;;;;;5040046;28;20624;-67
2020/12/17 05:15:10;;;;;;;22.80;13.87;;;;;;;;;;5037736;28;20185;-68
2020/12/17 05:17:35;;;;;;;25.07;15.53;;;;;;;;;;5039539;28;20188;-66
2020/12/17 05:20:01;;;;;;;24.20;17.63;;;;;;;;;;5039382;28;20202;-66
2020/12/17 05:22:27;;;;;;;24.70;17.00;;;;;;;;;;5038756;28;20224;-67
2020/12/17 05:24:54;;;;;;;23.30;15.80;;;;;;;;;;5039127;28;20210;-66
2020/12/17 05:27:19;;;;;;;26.73;18.50;;;;;;;;;;5038379;28;20653;-68
2020/12/17 05:29:44;;;;;;;23.67;16.83;;;;;;;;;;5037960;28;20208;-68
2020/12/17 05:32:10;;;;;;;23.53;17.73;;;;;;;;;;5039699;28;20186;-71
2020/12/17 05:34:36;;;;;;;24.23;16.23;;;;;;;;;;5039674;28;20211;-68
2020/12/17 05:37:05;;;;;;;23.73;15.83;;;;;;;;;;5039324;28;20710;-68
2020/12/17 05:39:30;;;;;;;24.27;16.23;;;;;;;;;;5039359;28;20239;-68
2020/12/17 05:41:55;;;;;;;24.20;17.27;;;;;;;;;;5039420;28;20291;-66
2020/12/17 05:44:24;;;;;;;23.20;16.73;;;;;;;;;;5054698;28;20215;-68
2020/12/17 05:46:50;;;;;;;23.43;18.43;;;;;;;;;;5038677;28;20233;-68
2020/12/17 05:49:25;;;;;;;27.17;20.37;;;;;;;;;;5038626;28;20209;-69
2020/12/17 05:52:07;;;;;;;24.27;18.50;;;;;;;;;;5038784;28;20179;-68
2020/12/17 05:54:33;;;;;;;24.93;19.47;;;;;;;;;;5038478;28;20197;-69
2020/12/17 05:57:08;;;;;;;28.50;20.60;;;;;;;;;;5039019;28;20183;-67
2020/12/17 05:59:34;;;;;;;26.67;19.53;;;;;;;;;;5038897;28;20288;-68
2020/12/17 06:02:18;;;;;;;26.47;19.27;;;;;;;;;;5039397;28;20617;-68
2020/12/17 06:04:43;;;;;;;27.47;19.57;;;;;;;;;;5039309;28;20900;-68
2020/12/17 06:07:13;;;;;;;25.37;18.50;;;;;;;;;;5038130;28;20178;-68
2020/12/17 06:09:45;;;;;;;24.40;19.07;;;;;;;;;;5038883;28;20200;-69
2020/12/17 06:12:11;;;;;;;26.63;20.20;;;;;;;;;;5039002;28;20182;-68
2020/12/17 06:14:38;;;;;;;22.27;18.70;;;;;;;;;;5040687;28;20185;-67
2020/12/17 06:17:05;;;;;;;25.43;19.30;;;;;;;;;;5043288;28;20203;-69
2020/12/17 06:19:31;;;;;;;25.80;19.60;;;;;;;;;;5038587;28;20206;-66
2020/12/17 06:21:57;;;;;;;24.63;19.77;;;;;;;;;;5038517;28;20182;-65
2020/12/17 06:24:23;;;;;;;25.80;19.53;;;;;;;;;;5035566;28;20246;-67
2020/12/17 06:26:52;;;;;;;24.00;18.40;;;;;;;;;;5038250;28;20176;-67
2020/12/17 06:29:21;;;;;;;23.57;17.73;;;;;;;;;;5038233;28;20556;-67
2020/12/17 06:31:56;;;;;;;24.20;18.50;;;;;;;;;;5070138;28;20218;-68
2020/12/17 06:34:22;;;;;;;22.63;17.30;;;;;;;;;;5054254;28;20270;-68
2020/12/17 06:36:49;;;;;;;24.00;18.43;;;;;;;;;;5038127;28;20207;-70
2020/12/17 06:39:14;;;;;;;24.23;18.50;;;;;;;;;;5038536;28;20372;-69
2020/12/17 06:41:40;;;;;;;23.50;17.80;;;;;;;;;;5038006;28;20291;-69
2020/12/17 06:44:24;;;;;;;23.50;18.23;;;;;;;;;;5035142;28;20225;-67
2020/12/17 06:46:59;;;;;;;22.87;17.60;;;;;;;;;;5035549;28;20180;-69
2020/12/17 06:49:25;;;;;;;20.80;17.17;;;;;;;;;;5040559;28;20232;-68
2020/12/17 06:52:02;;;;;;;23.13;18.00;;;;;;;;;;5041760;28;20189;-69
2020/12/17 06:54:27;;;;;;;23.00;18.23;;;;;;;;;;5039700;28;20216;-69
2020/12/17 06:57:06;;;;;;;23.87;18.73;;;;;;;;;;5052420;28;20376;-68
2020/12/17 06:59:32;;;;;;;24.40;19.00;;;;;;;;;;5039799;28;20198;-68
2020/12/17 07:01:57;;;;;;;24.60;18.73;;;;;;;;;;5057441;28;20966;-68
2020/12/17 07:04:42;;;;;;;26.87;20.73;;;;;;;;;;5042104;28;20213;-68
2020/12/17 07:07:08;;;;;;;26.43;19.60;;;;;;;;;;5041823;28;20187;-68
2020/12/17 07:09:33;;;;;;;31.70;24.03;;;;;;;;;;5041455;28;20272;-68
2020/12/17 07:11:58;;;;;;;24.30;19.43;;;;;;;;;;5042193;28;20717;-69
2020/12/17 07:14:23;;;;;;;24.00;20.20;;;;;;;;;;5041478;28;20190;-70
2020/12/17 07:16:59;;;;;;;28.43;21.53;;;;;;;;;;5041228;28;20205;-68
2020/12/17 07:19:30;;;;;;;25.90;19.10;;;;;;;;;;5041272;28;20204;-68
2020/12/17 07:22:00;;;;;;;25.40;18.37;;;;;;;;;;5039966;28;20292;-69
2020/12/17 07:24:27;;;;;;;24.57;18.40;;;;;;;;;;5040680;28;20207;-66
2020/12/17 07:26:52;;;;;;;19.57;16.33;;;;;;;;;;5038313;28;20191;-69
2020/12/17 07:29:18;;;;;;;23.73;19.23;;;;;;;;;;5040114;28;20217;-69
2020/12/17 07:31:43;;;;;;;22.67;19.00;;;;;;;;;;5051116;28;20338;-70
2020/12/17 07:34:15;;;;;;;24.50;19.13;;;;;;;;;;5038314;28;20179;-68
2020/12/17 07:36:45;;;;;;;24.43;18.87;;;;;;;;;;5038108;28;20777;-69
2020/12/17 07:39:10;;;;;;;21.73;18.30;;;;;;;;;;5034541;28;20212;-69
2020/12/17 07:41:35;;;;;;;23.90;19.73;;;;;;;;;;5040651;28;20204;-68
2020/12/17 07:44:00;;;;;;;22.33;18.17;;;;;;;;;;5038592;28;20211;-70
2020/12/17 07:46:41;;;;;;;21.83;17.17;;;;;;;;;;5038859;28;20283;-69
2020/12/17 07:49:23;;;;;;;23.03;17.10;;;;;;;;;;5037934;28;20244;-69
2020/12/17 07:51:48;;;;;;;23.83;18.43;;;;;;;;;;5034543;28;20174;-67
2020/12/17 07:54:18;;;;;;;21.20;17.33;;;;;;;;;;5041257;28;20555;-71
2020/12/17 07:56:43;;;;;;;22.30;18.67;;;;;;;;;;5041214;28;20300;-68
2020/12/17 07:59:08;;;;;;;22.57;17.53;;;;;;;;;;5040790;28;20288;-68
2020/12/17 08:01:34;;;;;;;20.20;16.57;;;;;;;;;;5040459;28;20601;-69
2020/12/17 08:03:59;;;;;;;19.73;14.77;;;;;;;;;;5040102;28;20208;-68
2020/12/17 08:06:25;;;;;;;25.90;16.80;;;;;;;;;;5033705;28;20272;-69
2020/12/17 08:09:09;;;;;;;22.67;17.97;;;;;;;;;;5041427;28;20227;-70
2020/12/17 08:11:35;;;;;;;21.03;16.90;;;;;;;;;;5040957;28;20554;-70
2020/12/17 08:14:01;;;;;;;21.10;16.10;;;;;;;;;;5042396;28;20188;-71
2020/12/17 08:16:27;;;;;;;23.07;16.73;;;;;;;;;;5037332;28;20532;-71
2020/12/17 08:18:54;;;;;;;24.50;16.80;;;;;;;;;;5043712;28;20218;-71
2020/12/17 08:21:19;;;;;;;23.00;16.77;;;;;;;;;;5042407;28;20529;-70
2020/12/17 08:23:45;;;;;;;23.40;16.37;;;;;;;;;;5035032;28;20211;-70
2020/12/17 08:26:12;;;;;;;23.20;15.93;;;;;;;;;;5039480;28;20180;-70
2020/12/17 08:28:41;;;;;;;21.77;16.40;;;;;;;;;;5040700;28;20711;-67
2020/12/17 08:31:10;;;;;;;22.40;15.87;;;;;;;;;;5040001;28;20305;-70
2020/12/17 08:33:40;;;;;;;22.63;16.00;;;;;;;;;;5048383;28;20208;-70
2020/12/17 08:36:09;;;;;;;22.07;15.07;;;;;;;;;;5039316;28;20188;-70
2020/12/17 08:38:35;;;;;;;20.33;14.90;;;;;;;;;;5040725;28;20222;-67
2020/12/17 08:41:02;;;;;;;21.87;14.93;;;;;;;;;;5033138;28;20266;-69
2020/12/17 08:43:28;;;;;;;19.93;13.57;;;;;;;;;;5041565;28;20985;-67
2020/12/17 08:45:55;;;;;;;16.83;12.30;;;;;;;;;;5040553;28;20189;-68
2020/12/17 08:48:22;;;;;;;16.93;12.27;;;;;;;;;;5039827;28;20211;-68
2020/12/17 08:50:47;;;;;;;19.53;12.97;;;;;;;;;;5040065;28;20371;-68
2020/12/17 08:53:20;;;;;;;19.30;12.67;;;;;;;;;;5041681;28;20191;-68
2020/12/17 08:55:59;;;;;;;17.27;12.07;;;;;;;;;;5034571;28;20222;-67
2020/12/17 08:58:24;;;;;;;18.03;11.47;;;;;;;;;;5034747;28;20293;-67
2020/12/17 09:00:50;;;;;;;16.37;11.60;;;;;;;;;;5039669;28;20305;-68
2020/12/17 09:03:15;;;;;;;15.87;12.23;;;;;;;;;;5040352;28;20242;-67
2020/12/17 09:05:40;;;;;;;17.20;13.80;;;;;;;;;;5039684;28;20179;-71
2020/12/17 09:08:06;;;;;;;17.23;13.87;;;;;;;;;;5033930;28;21072;-71
2020/12/17 09:10:33;;;;;;;17.67;11.90;;;;;;;;;;5033754;28;20189;-67
2020/12/17 09:12:58;;;;;;;17.40;12.00;;;;;;;;;;5040492;28;20837;-67
2020/12/17 09:15:27;;;;;;;15.00;11.47;;;;;;;;;;5039882;28;20193;-67
2020/12/17 09:18:06;;;;;;;16.97;12.37;;;;;;;;;;5039769;28;20186;-66
2020/12/17 09:20:32;;;;;;;17.40;11.30;;;;;;;;;;5039557;28;21041;-67
2020/12/17 09:23:04;;;;;;;14.27;11.30;;;;;;;;;;5037300;28;20180;-66
2020/12/17 09:25:31;;;;;;;15.17;12.00;;;;;;;;;;5037734;28;20184;-69
2020/12/17 09:27:56;;;;;;;15.03;12.07;;;;;;;;;;5040324;28;20268;-67
2020/12/17 09:30:22;;;;;;;14.00;11.40;;;;;;;;;;5040041;28;20581;-67
2020/12/17 09:32:53;;;;;;;14.97;11.63;;;;;;;;;;5040178;28;20665;-67
2020/12/17 09:35:19;;;;;;;15.33;11.23;;;;;;;;;;5038976;28;20179;-68
2020/12/17 09:38:04;;;;;;;14.17;11.40;;;;;;;;;;5040259;28;20179;-68
2020/12/17 09:40:30;;;;;;;14.90;11.07;;;;;;;;;;5031626;28;20203;-67
2020/12/17 09:43:02;;;;;;;16.97;11.30;;;;;;;;;;5040175;28;20192;-65
2020/12/17 09:45:32;;;;;;;14.77;11.37;;;;;;;;;;5038915;28;20187;-68
2020/12/17 09:47:57;;;;;;;13.47;10.43;;;;;;;;;;5032923;28;20191;-65
2020/12/17 09:50:22;;;;;;;16.13;10.40;;;;;;;;;;5037984;28;20184;-66
2020/12/17 09:52:48;;;;;;;10.77;8.40;;;;;;;;;;5035063;28;21116;-67
2020/12/17 09:55:13;;;;;;;15.63;9.43;;;;;;;;;;5030135;28;20191;-67
2020/12/17 09:57:40;;;;;;;11.30;7.73;;;;;;;;;;5054601;28;20335;-67
2020/12/17 10:00:07;;;;;;;10.65;8.98;;;;;;;;;;5037185;28;20276;-67
2020/12/17 10:02:37;;;;;;;10.43;8.63;;;;;;;;;;5032500;28;20188;-68
2020/12/17 10:05:03;;;;;;;12.18;9.68;;;;;;;;;;5026909;28;20206;-67
2020/12/17 10:07:29;;;;;;;11.60;9.50;;;;;;;;;;5030848;28;20183;-67
2020/12/17 10:09:54;;;;;;;10.83;8.87;;;;;;;;;;5034402;28;20229;-67
2020/12/17 10:12:20;;;;;;;11.07;9.02;;;;;;;;;;5039691;28;20189;-68
2020/12/17 10:14:45;;;;;;;12.57;9.48;;;;;;;;;;5039479;28;20193;-68
2020/12/17 10:17:10;;;;;;;10.98;9.52;;;;;;;;;;5039475;28;20270;-67
2020/12/17 10:19:36;;;;;;;9.27;7.40;;;;;;;;;;5043030;28;20867;-68
2020/12/17 10:22:01;;;;;;;9.02;7.00;;;;;;;;;;5037332;28;20198;-67
2020/12/17 10:24:27;;;;;;;9.50;7.32;;;;;;;;;;5042242;28;20210;-70
2020/12/17 10:26:53;;;;;;;16.05;9.02;;;;;;;;;;5041842;28;20231;-70
2020/12/17 10:29:18;;;;;;;12.35;8.65;;;;;;;;;;5042617;28;20203;-66
2020/12/17 10:31:47;;;;;;;10.45;8.27;;;;;;;;;;5051637;28;20321;-70
2020/12/17 10:34:13;;;;;;;9.50;7.47;;;;;;;;;;5056577;28;20202;-70
2020/12/17 10:36:39;;;;;;;9.85;7.22;;;;;;;;;;5040809;28;20188;-70
2020/12/17 10:39:06;;;;;;;10.77;8.25;;;;;;;;;;5043223;28;20305;-70
2020/12/17 10:41:31;;;;;;;8.02;6.82;;;;;;;;;;5042572;28;20196;-71
2020/12/17 10:43:56;;;;;;;7.65;6.38;;;;;;;;;;5073698;28;20233;-70
2020/12/17 10:46:21;;;;;;;7.22;6.30;;;;;;;;;;5042676;28;20191;-71
2020/12/17 10:48:47;;;;;;;8.93;7.55;;;;;;;;;;5041360;28;20821;-70
2020/12/17 10:51:15;;;;;;;8.65;7.05;;;;;;;;;;5043649;28;20259;-72
2020/12/17 10:53:41;;;;;;;10.07;8.18;;;;;;;;;;5042089;28;20191;-71
2020/12/17 10:56:08;;;;;;;8.00;6.63;;;;;;;;;;5035910;28;20175;-66
2020/12/17 10:58:33;;;;;;;10.98;8.18;;;;;;;;;;5043116;28;20244;-72
2020/12/17 11:00:58;;;;;;;9.75;8.40;;;;;;;;;;5043224;28;20291;-71
2020/12/17 11:03:23;;;;;;;10.60;8.05;;;;;;;;;;5042935;28;20214;-72
2020/12/17 11:05:49;;;;;;;9.98;8.55;;;;;;;;;;5042951;28;20210;-77
2020/12/17 11:08:14;;;;;;;9.88;8.43;;;;;;;;;;5042659;28;20683;-72
2020/12/17 11:10:39;;;;;;;10.25;8.32;;;;;;;;;;5036081;28;20180;-73
2020/12/17 11:13:04;;;;;;;9.10;8.02;;;;;;;;;;5074622;28;20241;-71
2020/12/17 11:15:30;;;;;;;13.10;8.25;;;;;;;;;;5041861;28;20180;-71
2020/12/17 11:17:55;;;;;;;10.52;8.75;;;;;;;;;;5042466;28;20930;-74
2020/12/17 11:20:20;;;;;;;10.77;8.73;;;;;;;;;;5045352;28;20186;-71
2020/12/17 11:22:46;;;;;;;12.90;7.90;;;;;;;;;;5074306;28;21011;-72
2020/12/17 11:25:11;;;;;;;11.02;8.13;;;;;;;;;;5041193;28;20342;-72
2020/12/17 11:27:37;;;;;;;8.82;7.88;;;;;;;;;;5041127;28;20192;-72
2020/12/17 11:30:04;;;;;;;10.98;8.55;;;;;;;;;;5041899;28;20202;-70
2020/12/17 11:32:29;;;;;;;10.77;8.05;;;;;;;;;;5042180;28;20184;-71
2020/12/17 11:34:54;;;;;;;10.00;8.00;;;;;;;;;;5039392;28;20186;-72
2020/12/17 11:37:19;;;;;;;9.00;7.13;;;;;;;;;;5073021;28;20233;-70
2020/12/17 11:39:45;;;;;;;12.60;8.55;;;;;;;;;;5041569;28;20212;-71
2020/12/17 11:42:10;;;;;;;22.48;8.43;;;;;;;;;;5041874;28;20207;-69
2020/12/17 11:44:36;;;;;;;10.65;8.10;;;;;;;;;;5056272;28;20220;-71
2020/12/17 11:47:01;;;;;;;9.45;7.80;;;;;;;;;;5041090;28;20278;-71
2020/12/17 11:49:26;;;;;;;9.88;8.07;;;;;;;;;;5041080;28;20207;-70
2020/12/17 11:51:52;;;;;;;11.88;8.80;;;;;;;;;;5041777;28;20195;-70
2020/12/17 11:54:18;;;;;;;12.05;9.07;;;;;;;;;;5041266;28;20198;-71
2020/12/17 11:56:46;;;;;;;10.07;7.88;;;;;;;;;;5056789;28;20199;-71
2020/12/17 11:59:12;;;;;;;11.30;8.60;;;;;;;;;;5056502;28;20228;-71
2020/12/17 12:01:37;;;;;;;8.82;6.43;;;;;;;;;;5041130;28;20187;-71
2020/12/17 12:04:03;;;;;;;11.05;8.57;;;;;;;;;;5041018;28;20208;-71
2020/12/17 12:06:28;;;;;;;9.93;7.85;;;;;;;;;;5040098;28;20179;-71
2020/12/17 12:08:53;;;;;;;10.85;8.40;;;;;;;;;;5056063;28;20199;-73
2020/12/17 12:11:18;;;;;;;8.95;6.75;;;;;;;;;;5041293;28;20674;-69
2020/12/17 12:13:44;;;;;;;11.30;7.80;;;;;;;;;;5041339;28;20191;-74
2020/12/17 12:16:15;;;;;;;10.15;7.35;;;;;;;;;;5034270;28;20191;-76
2020/12/17 12:18:41;;;;;;;9.18;7.25;;;;;;;;;;5041382;28;20199;-70
2020/12/17 12:21:09;;;;;;;13.05;9.00;;;;;;;;;;5040356;28;21031;-71
2020/12/17 12:23:34;;;;;;;10.15;8.32;;;;;;;;;;5041330;28;20233;-70
2020/12/17 12:26:01;;;;;;;9.45;8.45;;;;;;;;;;5040827;28;20183;-73
2020/12/17 12:28:26;;;;;;;9.23;8.00;;;;;;;;;;5040786;28;21011;-70
2020/12/17 12:30:51;;;;;;;9.20;7.90;;;;;;;;;;5037595;28;20175;-77
2020/12/17 12:33:17;;;;;;;10.38;8.85;;;;;;;;;;5042946;28;20659;-76
2020/12/17 12:35:42;;;;;;;10.38;8.10;;;;;;;;;;5043029;28;20235;-75
2020/12/17 12:38:07;;;;;;;9.45;8.40;;;;;;;;;;5043422;28;20591;-78
2020/12/17 12:40:35;;;;;;;9.15;8.02;;;;;;;;;;5042552;28;20189;-80
2020/12/17 12:43:00;;;;;;;9.57;8.15;;;;;;;;;;5033405;28;21011;-68
2020/12/17 12:45:25;;;;;;;10.63;7.43;;;;;;;;;;5040046;28;20202;-72
2020/12/17 12:47:50;;;;;;;11.13;7.93;;;;;;;;;;5050192;28;20199;-79
2020/12/17 12:50:16;;;;;;;11.20;7.90;;;;;;;;;;5038801;28;20176;-74
2020/12/17 12:52:41;;;;;;;9.45;8.23;;;;;;;;;;5040669;28;20587;-76
2020/12/17 12:55:07;;;;;;;9.48;7.35;;;;;;;;;;5039411;28;20246;-80
2020/12/17 12:57:34;;;;;;;8.60;7.35;;;;;;;;;;5035682;28;20184;-79
2020/12/17 12:59:59;;;;;;;11.18;7.80;;;;;;;;;;5039182;28;20294;-82
2020/12/17 13:02:24;;;;;;;10.25;7.35;;;;;;;;;;5040946;28;20270;-76
2020/12/17 13:04:50;;;;;;;10.43;7.75;;;;;;;;;;5041001;28;20617;-75
2020/12/17 13:07:16;;;;;;;9.68;7.50;;;;;;;;;;5040975;28;20461;-78
2020/12/17 13:09:41;;;;;;;10.43;7.78;;;;;;;;;;5036391;28;20244;-74
2020/12/17 13:12:06;;;;;;;10.98;7.93;;;;;;;;;;5070680;28;20257;-80
2020/12/17 13:14:32;;;;;;;10.93;7.40;;;;;;;;;;5042247;28;20186;-79
2020/12/17 13:16:57;;;;;;;8.40;6.32;;;;;;;;;;5041607;28;20237;-80
2020/12/17 13:19:22;;;;;;;14.75;8.13;;;;;;;;;;5035283;28;20691;-80
2020/12/17 13:21:48;;;;;;;12.18;8.35;;;;;;;;;;5041470;28;20556;-78
2020/12/17 13:24:13;;;;;;;10.35;8.68;;;;;;;;;;5041652;28;20328;-81
2020/12/17 13:26:38;;;;;;;10.52;8.57;;;;;;;;;;5041253;28;20175;-79
2020/12/17 13:29:04;;;;;;;9.87;8.53;;;;;;;;;;5041200;28;20698;-79
2020/12/17 13:31:29;;;;;;;9.65;7.85;;;;;;;;;;5040923;28;20185;-77
2020/12/17 13:33:56;;;;;;;9.90;7.63;;;;;;;;;;5041277;28;20858;-75
2020/12/17 13:36:22;;;;;;;9.10;7.93;;;;;;;;;;5040851;28;20188;-81
2020/12/17 13:38:47;;;;;;;11.55;8.30;;;;;;;;;;5041310;28;20727;-70
2020/12/17 13:41:12;;;;;;;10.67;8.87;;;;;;;;;;5040782;28;20304;-79
2020/12/17 13:43:38;;;;;;;10.60;8.90;;;;;;;;;;5041151;28;20218;-79
2020/12/17 13:46:06;;;;;;;10.95;7.55;;;;;;;;;;5040879;28;20214;-66
2020/12/17 13:48:31;;;;;;;11.55;8.18;;;;;;;;;;5041091;28;20220;-80
2020/12/17 13:50:56;;;;;;;11.07;7.35;;;;;;;;;;5039087;28;20586;-79
2020/12/17 13:53:21;;;;;;;9.45;7.40;;;;;;;;;;5039052;28;20740;-79
2020/12/17 13:55:47;;;;;;;9.57;6.57;;;;;;;;;;5040493;28;20600;-79
2020/12/17 13:58:12;;;;;;;9.05;6.43;;;;;;;;;;5040786;28;21018;-79
2020/12/17 14:00:38;;;;;;;8.13;6.70;;;;;;;;;;5020655;28;20285;-78
2020/12/17 14:03:03;;;;;;;10.85;7.57;;;;;;;;;;5027450;28;20964;-79
2020/12/17 14:05:29;;;;;;;9.15;6.75;;;;;;;;;;5031135;28;20729;-78
2020/12/17 14:07:54;;;;;;;10.07;7.65;;;;;;;;;;5040461;28;20163;-78
2020/12/17 14:10:19;;;;;;;9.40;6.47;;;;;;;;;;5040528;28;20639;-79
2020/12/17 14:12:45;;;;;;;12.05;7.32;;;;;;;;;;5040097;28;20186;-71
2020/12/17 14:15:10;;;;;;;9.55;7.38;;;;;;;;;;5039718;28;21021;-71
2020/12/17 14:17:36;;;;;;;9.50;7.07;;;;;;;;;;5038225;28;20660;-64
2020/12/17 14:20:01;;;;;;;10.50;6.47;;;;;;;;;;5039203;28;20204;-74